Time;durP1;ratioP1;P1;durP2;ratioP2;P2;SDS_P1;SDS_P2;PMS_P1;PMS_P2;Temp;Humidity;BMP_temperature;BMP_pressure;BME280_temperature;BME280_humidity;BME280_pressure;Samples;Min_cycle;Max_cycle;Signal;HPM_P1;HPM_P2
2023/05/20 00:01:19;;;;;;;8.07;2.40;;;;;;;;;;7369475;19;20268;-78
2023/05/20 00:03:45;;;;;;;6.38;2.72;;;;;;;;;;7376129;19;20263;-79
2023/05/20 00:06:10;;;;;;;6.90;2.65;;;;;;;;;;7372752;19;20030;-78
2023/05/20 00:08:35;;;;;;;8.30;2.80;;;;;;;;;;7367703;19;20003;-78
2023/05/20 00:11:00;;;;;;;6.78;2.75;;;;;;;;;;7370349;19;20026;-78
2023/05/20 00:13:25;;;;;;;6.13;2.50;;;;;;;;;;7367771;19;20100;-78
2023/05/20 00:15:52;;;;;;;7.75;2.78;;;;;;;;;;7369000;19;19999;-79
2023/05/20 00:18:17;;;;;;;9.90;2.60;;;;;;;;;;7369965;19;20007;-79
2023/05/20 00:20:42;;;;;;;6.32;2.55;;;;;;;;;;7368238;19;20070;-78
2023/05/20 00:23:07;;;;;;;8.10;3.00;;;;;;;;;;7371436;19;20059;-80
2023/05/20 00:25:32;;;;;;;6.28;2.47;;;;;;;;;;7365293;19;20252;-79
2023/05/20 00:27:58;;;;;;;8.10;2.47;;;;;;;;;;7370689;19;20062;-79
2023/05/20 00:30:23;;;;;;;7.30;2.63;;;;;;;;;;7365642;19;20412;-78
2023/05/20 00:32:48;;;;;;;6.90;2.47;;;;;;;;;;7371924;19;20722;-78
2023/05/20 00:35:13;;;;;;;9.77;3.00;;;;;;;;;;7372336;19;20255;-78
2023/05/20 00:37:38;;;;;;;5.53;2.57;;;;;;;;;;7369891;19;20052;-79
2023/05/20 00:40:04;;;;;;;6.27;2.40;;;;;;;;;;7366203;19;20372;-79
2023/05/20 00:42:29;;;;;;;9.02;2.97;;;;;;;;;;7368678;19;20223;-77
2023/05/20 00:44:55;;;;;;;9.05;2.60;;;;;;;;;;7369749;19;20504;-79
2023/05/20 00:47:28;;;;;;;7.68;2.38;;;;;;;;;;7370051;19;20018;-78
2023/05/20 00:49:53;;;;;;;6.93;2.85;;;;;;;;;;7369694;19;20009;-79
2023/05/20 00:52:18;;;;;;;8.70;2.37;;;;;;;;;;7368643;19;20062;-79
2023/05/20 00:54:43;;;;;;;6.68;2.35;;;;;;;;;;7366628;19;20235;-78
2023/05/20 00:57:09;;;;;;;5.40;2.25;;;;;;;;;;7368899;19;20180;-78
2023/05/20 00:59:35;;;;;;;5.68;2.25;;;;;;;;;;7339239;19;20102;-79
2023/05/20 01:02:01;;;;;;;6.82;2.78;;;;;;;;;;7362593;19;20097;-79
2023/05/20 01:04:26;;;;;;;5.43;2.13;;;;;;;;;;7368535;19;20010;-79
2023/05/20 01:06:51;;;;;;;7.28;2.40;;;;;;;;;;7367004;19;20062;-79
2023/05/20 01:09:17;;;;;;;8.90;2.42;;;;;;;;;;7367512;19;20013;-79
2023/05/20 01:11:46;;;;;;;6.07;2.58;;;;;;;;;;7365403;19;20021;-79
2023/05/20 01:14:12;;;;;;;6.68;2.55;;;;;;;;;;7356203;19;19994;-79
2023/05/20 01:16:37;;;;;;;5.72;2.53;;;;;;;;;;7369390;19;20342;-80
2023/05/20 01:19:06;;;;;;;5.90;2.30;;;;;;;;;;7363359;19;20475;-78
2023/05/20 01:21:32;;;;;;;6.25;2.17;;;;;;;;;;7369465;19;20003;-79
2023/05/20 01:23:57;;;;;;;7.68;2.80;;;;;;;;;;7369771;19;20191;-78
2023/05/20 01:26:25;;;;;;;5.78;2.40;;;;;;;;;;7370019;19;20014;-79
2023/05/20 01:28:50;;;;;;;6.32;2.60;;;;;;;;;;7362067;19;20337;-78
2023/05/20 01:31:18;;;;;;;6.13;2.63;;;;;;;;;;7368228;19;20002;-79
2023/05/20 01:33:44;;;;;;;5.55;2.40;;;;;;;;;;7367738;19;20724;-78
2023/05/20 01:36:09;;;;;;;5.57;2.17;;;;;;;;;;7368336;19;20030;-79
2023/05/20 01:38:35;;;;;;;4.85;2.33;;;;;;;;;;7361652;19;20313;-78
2023/05/20 01:41:01;;;;;;;5.78;2.40;;;;;;;;;;7371223;19;20098;-78
2023/05/20 01:43:27;;;;;;;5.43;2.30;;;;;;;;;;7366423;19;20120;-79
2023/05/20 01:45:52;;;;;;;7.20;2.60;;;;;;;;;;7365734;19;20481;-77
2023/05/20 01:48:17;;;;;;;8.02;2.72;;;;;;;;;;7367769;19;19998;-79
2023/05/20 01:50:42;;;;;;;7.83;2.53;;;;;;;;;;7366193;19;20025;-79
2023/05/20 01:53:08;;;;;;;8.57;2.87;;;;;;;;;;7364483;19;20272;-79
2023/05/20 01:55:33;;;;;;;5.55;2.50;;;;;;;;;;7365249;19;21150;-79
2023/05/20 01:57:59;;;;;;;7.45;2.70;;;;;;;;;;7356987;19;20386;-78
2023/05/20 02:00:24;;;;;;;5.10;2.50;;;;;;;;;;7288448;19;20115;-78
2023/05/20 02:02:49;;;;;;;7.57;2.53;;;;;;;;;;7283388;19;21200;-78
2023/05/20 02:05:15;;;;;;;9.98;2.80;;;;;;;;;;7291647;19;20010;-78
2023/05/20 02:07:40;;;;;;;9.75;2.63;;;;;;;;;;7292572;19;20403;-78
2023/05/20 02:10:05;;;;;;;6.55;2.63;;;;;;;;;;7288762;19;20005;-76
2023/05/20 02:12:30;;;;;;;7.75;3.00;;;;;;;;;;7283779;19;19998;-76
2023/05/20 02:14:56;;;;;;;6.43;2.60;;;;;;;;;;7291668;19;20063;-76
2023/05/20 02:17:21;;;;;;;6.05;2.85;;;;;;;;;;7289738;19;20286;-79
2023/05/20 02:19:46;;;;;;;7.17;2.80;;;;;;;;;;7295637;19;20765;-79
2023/05/20 02:22:12;;;;;;;6.47;2.72;;;;;;;;;;7290600;19;21068;-78
2023/05/20 02:24:37;;;;;;;7.35;2.67;;;;;;;;;;7291935;19;20312;-78
2023/05/20 02:27:03;;;;;;;7.10;3.00;;;;;;;;;;7300018;19;20456;-78
2023/05/20 02:29:28;;;;;;;8.48;2.72;;;;;;;;;;7293728;19;20772;-78
2023/05/20 02:31:54;;;;;;;6.20;2.60;;;;;;;;;;7289114;19;20033;-77
2023/05/20 02:34:19;;;;;;;6.68;3.00;;;;;;;;;;7293711;19;19998;-78
2023/05/20 02:36:44;;;;;;;9.02;3.00;;;;;;;;;;7287636;19;19999;-77
2023/05/20 02:39:09;;;;;;;5.67;2.80;;;;;;;;;;7276787;19;19999;-77
2023/05/20 02:41:35;;;;;;;6.93;2.70;;;;;;;;;;7280366;19;20649;-78
2023/05/20 02:44:00;;;;;;;6.87;2.60;;;;;;;;;;7280578;19;20082;-78
2023/05/20 02:46:25;;;;;;;6.30;3.17;;;;;;;;;;7292303;19;20700;-79
2023/05/20 02:48:51;;;;;;;6.97;2.85;;;;;;;;;;7282342;19;20760;-79
2023/05/20 02:51:16;;;;;;;7.50;2.60;;;;;;;;;;7297486;19;20427;-79
2023/05/20 02:53:41;;;;;;;6.40;2.93;;;;;;;;;;7294960;19;20251;-79
2023/05/20 02:56:07;;;;;;;6.07;3.03;;;;;;;;;;7299713;19;20687;-79
2023/05/20 02:58:34;;;;;;;8.88;2.92;;;;;;;;;;7307805;19;20027;-79
2023/05/20 03:00:59;;;;;;;6.22;3.17;;;;;;;;;;7369806;19;20002;-79
2023/05/20 03:03:26;;;;;;;8.18;3.08;;;;;;;;;;7374377;19;20022;-80
2023/05/20 03:05:51;;;;;;;7.55;3.30;;;;;;;;;;7369214;19;20351;-78
2023/05/20 03:08:17;;;;;;;7.13;2.85;;;;;;;;;;7374309;19;20359;-80
2023/05/20 03:10:42;;;;;;;5.50;2.65;;;;;;;;;;7369321;19;20094;-79
2023/05/20 03:13:09;;;;;;;9.30;3.23;;;;;;;;;;7371261;19;20006;-80
2023/05/20 03:15:35;;;;;;;11.60;3.03;;;;;;;;;;7373987;19;20239;-79
2023/05/20 03:18:00;;;;;;;7.53;2.97;;;;;;;;;;7369709;19;19995;-79
2023/05/20 03:20:27;;;;;;;11.75;3.05;;;;;;;;;;7372039;19;19994;-80
2023/05/20 03:22:53;;;;;;;6.57;2.92;;;;;;;;;;7370885;19;20044;-79
2023/05/20 03:25:18;;;;;;;7.37;3.27;;;;;;;;;;7373319;19;20006;-80
2023/05/20 03:27:43;;;;;;;6.13;2.90;;;;;;;;;;7371052;19;20242;-79
2023/05/20 03:30:09;;;;;;;8.05;3.15;;;;;;;;;;7368461;19;20524;-80
2023/05/20 03:32:34;;;;;;;7.25;3.50;;;;;;;;;;7375714;19;20014;-79
2023/05/20 03:34:59;;;;;;;9.88;3.95;;;;;;;;;;7374739;19;19999;-80
2023/05/20 03:37:25;;;;;;;7.77;3.10;;;;;;;;;;7373034;19;20000;-79
2023/05/20 03:39:50;;;;;;;7.47;3.30;;;;;;;;;;7370804;19;20228;-79
2023/05/20 03:42:15;;;;;;;9.30;3.50;;;;;;;;;;7364078;19;20018;-79
2023/05/20 03:44:40;;;;;;;5.83;3.13;;;;;;;;;;7371723;19;20761;-79
2023/05/20 03:47:05;;;;;;;7.67;3.50;;;;;;;;;;7369398;19;20235;-79
2023/05/20 03:49:30;;;;;;;8.00;3.67;;;;;;;;;;7373650;19;20786;-79
2023/05/20 03:51:55;;;;;;;9.07;3.70;;;;;;;;;;7372653;19;20215;-79
2023/05/20 03:54:21;;;;;;;6.75;3.30;;;;;;;;;;7370528;19;20542;-79
2023/05/20 03:56:48;;;;;;;5.90;3.10;;;;;;;;;;7372142;19;20022;-79
2023/05/20 03:59:13;;;;;;;6.43;2.85;;;;;;;;;;7347714;19;20288;-79
2023/05/20 04:01:38;;;;;;;9.70;3.80;;;;;;;;;;7373931;19;20547;-78
2023/05/20 04:04:03;;;;;;;7.43;3.72;;;;;;;;;;7370832;19;20835;-79
2023/05/20 04:06:28;;;;;;;9.23;3.67;;;;;;;;;;7372220;19;20029;-78
2023/05/20 04:08:53;;;;;;;7.57;3.37;;;;;;;;;;7372363;19;20553;-79
2023/05/20 04:11:18;;;;;;;8.68;3.50;;;;;;;;;;7375419;19;20260;-78
2023/05/20 04:13:44;;;;;;;6.63;3.43;;;;;;;;;;7370567;19;20007;-78
2023/05/20 04:16:09;;;;;;;6.63;3.20;;;;;;;;;;7367953;19;20277;-79
2023/05/20 04:18:37;;;;;;;7.47;3.45;;;;;;;;;;7368521;19;20297;-79
2023/05/20 04:21:03;;;;;;;8.35;3.65;;;;;;;;;;7371264;19;20006;-79
2023/05/20 04:23:28;;;;;;;6.47;3.28;;;;;;;;;;7372003;19;20026;-79
2023/05/20 04:25:54;;;;;;;10.07;4.00;;;;;;;;;;7371048;19;20083;-78
2023/05/20 04:28:22;;;;;;;8.25;3.67;;;;;;;;;;7371311;19;20352;-79
2023/05/20 04:30:48;;;;;;;8.88;3.45;;;;;;;;;;7365952;19;20009;-78
2023/05/20 04:33:15;;;;;;;7.03;3.38;;;;;;;;;;7372703;19;20530;-78
2023/05/20 04:35:40;;;;;;;7.38;3.08;;;;;;;;;;7371091;19;20006;-78
2023/05/20 04:38:06;;;;;;;6.63;3.33;;;;;;;;;;7368772;19;20334;-79
2023/05/20 04:40:31;;;;;;;6.40;3.00;;;;;;;;;;7372879;19;19987;-79
2023/05/20 04:42:58;;;;;;;8.52;3.63;;;;;;;;;;7370055;19;20002;-79
2023/05/20 04:45:24;;;;;;;7.60;3.58;;;;;;;;;;7375623;19;20420;-78
2023/05/20 04:47:52;;;;;;;7.65;3.10;;;;;;;;;;7370250;19;20030;-79
2023/05/20 04:50:17;;;;;;;5.57;2.85;;;;;;;;;;7373997;19;19999;-79
2023/05/20 04:52:44;;;;;;;7.95;3.42;;;;;;;;;;7375892;19;20024;-78
2023/05/20 04:55:10;;;;;;;6.15;3.00;;;;;;;;;;7373169;19;20662;-78
2023/05/20 04:57:38;;;;;;;7.10;3.40;;;;;;;;;;7374349;19;20090;-78
2023/05/20 05:00:06;;;;;;;11.25;4.05;;;;;;;;;;7371606;19;20018;-78
2023/05/20 05:02:31;;;;;;;7.07;3.50;;;;;;;;;;7373415;19;19999;-77
2023/05/20 05:04:56;;;;;;;6.63;3.10;;;;;;;;;;7373041;19;20002;-79
2023/05/20 05:07:21;;;;;;;9.63;3.10;;;;;;;;;;7372364;19;20227;-78
2023/05/20 05:09:47;;;;;;;7.03;3.30;;;;;;;;;;7367531;19;20271;-78
2023/05/20 05:12:12;;;;;;;6.73;3.40;;;;;;;;;;7368574;19;20438;-77
2023/05/20 05:14:37;;;;;;;6.70;3.20;;;;;;;;;;7369577;19;20054;-77
2023/05/20 05:17:02;;;;;;;9.82;3.53;;;;;;;;;;7356050;19;20697;-79
2023/05/20 05:19:27;;;;;;;7.35;3.60;;;;;;;;;;7349911;19;19998;-78
2023/05/20 05:21:53;;;;;;;6.70;2.93;;;;;;;;;;7346545;19;20054;-79
2023/05/20 05:24:18;;;;;;;8.00;3.25;;;;;;;;;;7359180;19;20364;-78
2023/05/20 05:26:43;;;;;;;9.03;3.40;;;;;;;;;;7374486;19;20006;-79
2023/05/20 05:29:08;;;;;;;9.13;3.60;;;;;;;;;;7353151;19;19991;-78
2023/05/20 05:31:34;;;;;;;9.30;3.70;;;;;;;;;;7359864;19;20256;-78
2023/05/20 05:33:59;;;;;;;7.95;3.08;;;;;;;;;;7362471;19;20085;-77
2023/05/20 05:36:24;;;;;;;8.20;3.30;;;;;;;;;;7369386;19;20442;-78
2023/05/20 05:38:50;;;;;;;6.85;2.90;;;;;;;;;;7356527;19;20014;-79
2023/05/20 05:41:15;;;;;;;7.18;3.20;;;;;;;;;;7364836;19;20086;-78
2023/05/20 05:43:40;;;;;;;8.85;3.17;;;;;;;;;;7357476;19;20510;-78
2023/05/20 05:46:05;;;;;;;8.77;3.45;;;;;;;;;;7366934;19;20002;-78
2023/05/20 05:48:31;;;;;;;6.82;3.33;;;;;;;;;;7368760;19;19999;-79
2023/05/20 05:50:56;;;;;;;8.68;3.50;;;;;;;;;;7370498;19;20007;-78
2023/05/20 05:53:21;;;;;;;6.55;3.40;;;;;;;;;;7368067;19;20026;-79
2023/05/20 05:55:46;;;;;;;6.82;3.25;;;;;;;;;;7369362;19;20006;-79
2023/05/20 05:58:11;;;;;;;8.77;3.23;;;;;;;;;;7353897;19;20503;-78
2023/05/20 06:00:37;;;;;;;9.23;3.90;;;;;;;;;;7368188;19;20066;-79
2023/05/20 06:03:02;;;;;;;6.93;3.53;;;;;;;;;;7363319;19;20565;-78
2023/05/20 06:05:27;;;;;;;7.38;3.70;;;;;;;;;;7360715;19;20260;-79
2023/05/20 06:07:52;;;;;;;6.60;3.33;;;;;;;;;;7356633;19;20165;-77
2023/05/20 06:10:18;;;;;;;9.30;3.73;;;;;;;;;;7359397;19;20014;-78
2023/05/20 06:12:43;;;;;;;5.85;3.00;;;;;;;;;;7354735;19;20258;-78
2023/05/20 06:15:08;;;;;;;7.97;3.37;;;;;;;;;;7363018;19;20563;-78
2023/05/20 06:17:33;;;;;;;6.68;3.20;;;;;;;;;;7364937;19;20262;-78
2023/05/20 06:19:59;;;;;;;6.78;3.53;;;;;;;;;;7364722;19;20095;-78
2023/05/20 06:22:24;;;;;;;7.35;4.07;;;;;;;;;;7366735;19;20014;-78
2023/05/20 06:24:50;;;;;;;6.43;3.15;;;;;;;;;;7358743;19;20007;-77
2023/05/20 06:27:15;;;;;;;6.57;3.13;;;;;;;;;;7365023;19;20453;-77
2023/05/20 06:29:40;;;;;;;8.35;3.72;;;;;;;;;;7361675;19;20007;-78
2023/05/20 06:32:05;;;;;;;6.23;3.33;;;;;;;;;;7364825;19;20002;-78
2023/05/20 06:34:30;;;;;;;6.53;3.88;;;;;;;;;;7364938;19;20099;-78
2023/05/20 06:36:56;;;;;;;8.73;4.13;;;;;;;;;;7369852;19;20304;-77
2023/05/20 06:39:21;;;;;;;6.70;3.47;;;;;;;;;;7365228;19;20819;-77
2023/05/20 06:41:46;;;;;;;9.65;3.45;;;;;;;;;;7369446;19;20072;-78
2023/05/20 06:44:11;;;;;;;8.07;3.72;;;;;;;;;;7362746;19;20018;-77
2023/05/20 06:46:37;;;;;;;8.43;3.55;;;;;;;;;;7367260;19;20106;-77
2023/05/20 06:49:02;;;;;;;6.97;3.45;;;;;;;;;;7365895;19;19995;-77
2023/05/20 06:51:27;;;;;;;7.57;3.65;;;;;;;;;;7366539;19;20010;-78
2023/05/20 06:53:52;;;;;;;6.38;3.17;;;;;;;;;;7366141;19;20416;-77
2023/05/20 06:56:18;;;;;;;6.60;3.60;;;;;;;;;;7365654;19;20002;-77
2023/05/20 06:58:43;;;;;;;7.70;3.80;;;;;;;;;;7365612;19;20267;-78
2023/05/20 07:01:08;;;;;;;7.33;3.10;;;;;;;;;;7366339;19;20005;-77
2023/05/20 07:03:33;;;;;;;10.47;3.57;;;;;;;;;;7366927;19;19995;-78
2023/05/20 07:05:58;;;;;;;8.38;3.55;;;;;;;;;;7363462;19;20121;-78
2023/05/20 07:08:23;;;;;;;8.05;3.67;;;;;;;;;;7365841;19;20018;-78
2023/05/20 07:10:48;;;;;;;8.97;4.00;;;;;;;;;;7359925;19;19999;-77
2023/05/20 07:13:14;;;;;;;8.38;4.22;;;;;;;;;;7363474;19;20003;-77
2023/05/20 07:15:39;;;;;;;7.35;3.67;;;;;;;;;;7369699;19;20013;-77
2023/05/20 07:18:04;;;;;;;6.87;3.73;;;;;;;;;;7366419;19;20017;-77
2023/05/20 07:20:32;;;;;;;9.52;3.60;;;;;;;;;;7364302;19;20075;-78
2023/05/20 07:22:57;;;;;;;8.48;4.40;;;;;;;;;;7370010;19;20010;-78
2023/05/20 07:25:23;;;;;;;9.47;4.30;;;;;;;;;;7366264;19;19999;-77
2023/05/20 07:27:48;;;;;;;10.43;4.17;;;;;;;;;;7365823;19;20263;-79
2023/05/20 07:30:13;;;;;;;8.20;3.80;;;;;;;;;;7366427;19;20138;-79
2023/05/20 07:32:38;;;;;;;10.30;4.70;;;;;;;;;;7366368;19;20335;-79
2023/05/20 07:35:04;;;;;;;9.13;4.32;;;;;;;;;;7371059;19;20032;-79
2023/05/20 07:37:29;;;;;;;9.48;4.72;;;;;;;;;;7374723;19;19991;-77
2023/05/20 07:39:54;;;;;;;7.45;3.85;;;;;;;;;;7372030;19;20302;-78
2023/05/20 07:42:20;;;;;;;9.07;4.63;;;;;;;;;;7373909;19;20423;-78
2023/05/20 07:44:45;;;;;;;10.30;4.53;;;;;;;;;;7374069;19;19990;-77
2023/05/20 07:47:10;;;;;;;9.18;4.20;;;;;;;;;;7373769;19;20268;-77
2023/05/20 07:49:35;;;;;;;6.63;3.90;;;;;;;;;;7372679;19;20384;-77
2023/05/20 07:52:00;;;;;;;8.77;4.67;;;;;;;;;;7371493;19;20006;-79
2023/05/20 07:54:26;;;;;;;8.10;4.43;;;;;;;;;;7372385;19;20607;-78
2023/05/20 07:56:51;;;;;;;8.82;4.80;;;;;;;;;;7373888;19;20014;-77
2023/05/20 07:59:16;;;;;;;9.73;4.37;;;;;;;;;;7355957;19;20364;-78
2023/05/20 08:01:42;;;;;;;9.23;5.00;;;;;;;;;;7369312;19;19999;-79
2023/05/20 08:04:07;;;;;;;8.05;4.15;;;;;;;;;;7373404;19;20586;-77
2023/05/20 08:06:34;;;;;;;8.60;4.65;;;;;;;;;;7373923;19;20329;-77
2023/05/20 08:08:59;;;;;;;9.15;4.70;;;;;;;;;;7360001;19;20085;-80
2023/05/20 08:11:24;;;;;;;7.57;4.40;;;;;;;;;;7374466;19;20102;-77
2023/05/20 08:13:49;;;;;;;8.53;4.77;;;;;;;;;;7370706;19;20274;-78
2023/05/20 08:16:14;;;;;;;8.17;4.57;;;;;;;;;;7371929;19;20003;-78
2023/05/20 08:18:40;;;;;;;9.00;4.57;;;;;;;;;;7371752;19;20538;-77
2023/05/20 08:21:08;;;;;;;8.70;4.85;;;;;;;;;;7372506;19;20011;-77
2023/05/20 08:23:34;;;;;;;8.82;5.07;;;;;;;;;;7371562;19;19995;-79
2023/05/20 08:26:02;;;;;;;8.23;4.28;;;;;;;;;;7374036;19;20002;-78
2023/05/20 08:28:27;;;;;;;8.90;4.43;;;;;;;;;;7363266;19;20126;-77
2023/05/20 08:30:53;;;;;;;8.98;4.30;;;;;;;;;;7373557;19;20427;-79
2023/05/20 08:33:20;;;;;;;9.38;4.43;;;;;;;;;;7371103;19;20002;-79
2023/05/20 08:35:45;;;;;;;10.00;4.50;;;;;;;;;;7374660;19;20024;-77
2023/05/20 08:38:11;;;;;;;10.60;4.50;;;;;;;;;;7373097;19;20006;-77
2023/05/20 08:40:36;;;;;;;10.57;4.93;;;;;;;;;;7371931;19;20078;-77
2023/05/20 08:43:01;;;;;;;10.67;4.57;;;;;;;;;;7369355;19;20410;-78
2023/05/20 08:45:29;;;;;;;8.27;4.30;;;;;;;;;;7367784;19;20496;-77
2023/05/20 08:47:54;;;;;;;8.48;4.38;;;;;;;;;;7371440;19;20247;-78
2023/05/20 08:50:20;;;;;;;9.02;4.97;;;;;;;;;;7370977;19;20032;-79
2023/05/20 08:52:47;;;;;;;11.00;4.82;;;;;;;;;;7373452;19;20416;-77
2023/05/20 08:55:13;;;;;;;8.73;4.00;;;;;;;;;;7369180;19;20022;-77
2023/05/20 08:57:40;;;;;;;8.80;4.63;;;;;;;;;;7370276;19;20153;-77
2023/05/20 09:00:12;;;;;;;8.52;4.47;;;;;;;;;;7367990;19;20006;-79
2023/05/20 09:02:37;;;;;;;8.88;4.70;;;;;;;;;;7369999;19;20138;-79
2023/05/20 09:05:03;;;;;;;8.85;5.05;;;;;;;;;;7367748;19;20009;-77
2023/05/20 09:07:29;;;;;;;8.23;4.95;;;;;;;;;;7371227;19;20342;-76
2023/05/20 09:09:55;;;;;;;10.32;4.78;;;;;;;;;;7369371;19;20026;-77
2023/05/20 09:12:20;;;;;;;8.32;4.90;;;;;;;;;;7369478;19;19995;-78
2023/05/20 09:14:45;;;;;;;7.50;4.30;;;;;;;;;;7366320;19;19998;-78
2023/05/20 09:17:11;;;;;;;7.17;4.20;;;;;;;;;;7371502;19;20102;-78
2023/05/20 09:19:36;;;;;;;8.57;4.35;;;;;;;;;;7368890;19;20324;-77
2023/05/20 09:22:02;;;;;;;8.90;4.57;;;;;;;;;;7370985;19;20071;-77
2023/05/20 09:24:27;;;;;;;10.05;4.43;;;;;;;;;;7367616;19;20035;-77
2023/05/20 09:26:52;;;;;;;7.80;3.87;;;;;;;;;;7373512;19;20015;-77
2023/05/20 09:29:20;;;;;;;7.13;4.17;;;;;;;;;;7370141;19;20314;-78
2023/05/20 09:31:45;;;;;;;10.02;3.95;;;;;;;;;;7366231;19;20009;-78
2023/05/20 09:34:11;;;;;;;9.30;4.45;;;;;;;;;;7368166;19;20006;-77
2023/05/20 09:36:38;;;;;;;8.45;4.88;;;;;;;;;;7366467;19;19994;-77
2023/05/20 09:39:04;;;;;;;6.68;3.83;;;;;;;;;;7368345;19;20059;-76
2023/05/20 09:41:33;;;;;;;6.85;3.95;;;;;;;;;;7365293;19;20178;-78
2023/05/20 09:43:58;;;;;;;7.72;3.90;;;;;;;;;;7365512;19;20022;-77
2023/05/20 09:46:24;;;;;;;7.78;3.83;;;;;;;;;;7367385;19;19996;-79
2023/05/20 09:48:49;;;;;;;10.15;4.43;;;;;;;;;;7370127;19;20110;-76
2023/05/20 09:51:15;;;;;;;7.43;3.97;;;;;;;;;;7367803;19;20127;-77
2023/05/20 09:53:40;;;;;;;6.80;3.95;;;;;;;;;;7364893;19;20419;-76
2023/05/20 09:56:05;;;;;;;7.63;4.30;;;;;;;;;;7371451;19;20043;-77
2023/05/20 09:58:32;;;;;;;8.07;3.77;;;;;;;;;;7359773;19;20313;-77
2023/05/20 10:00:57;;;;;;;8.50;3.80;;;;;;;;;;7370533;19;20047;-75
2023/05/20 10:03:23;;;;;;;6.85;3.70;;;;;;;;;;7364066;19;20003;-77
2023/05/20 10:06:08;;;;;;;9.65;4.47;;;;;;;;;;7366962;19;20017;-77
2023/05/20 10:08:36;;;;;;;6.50;3.45;;;;;;;;;;7348197;19;20316;-78
2023/05/20 10:11:20;;;;;;;8.77;3.90;;;;;;;;;;7369011;19;20009;-78
2023/05/20 10:13:46;;;;;;;11.20;3.83;;;;;;;;;;7359615;19;20010;-76
2023/05/20 10:16:14;;;;;;;7.73;3.57;;;;;;;;;;7365258;19;20357;-78
2023/05/20 10:18:54;;;;;;;10.65;4.05;;;;;;;;;;7362020;19;20831;-76
2023/05/20 10:21:23;;;;;;;7.40;3.83;;;;;;;;;;7366907;19;19998;-78
2023/05/20 10:23:48;;;;;;;8.43;3.90;;;;;;;;;;7365570;19;20002;-78
2023/05/20 10:26:13;;;;;;;7.60;3.40;;;;;;;;;;7371933;19;20021;-77
2023/05/20 10:28:39;;;;;;;7.73;4.07;;;;;;;;;;7361302;19;21267;-77
2023/05/20 10:31:21;;;;;;;8.55;3.35;;;;;;;;;;7367332;19;20328;-78
2023/05/20 10:33:46;;;;;;;9.20;3.55;;;;;;;;;;7366787;19;20018;-77
2023/05/20 10:36:29;;;;;;;7.32;4.07;;;;;;;;;;7364961;19;20373;-77
2023/05/20 10:38:55;;;;;;;8.27;3.95;;;;;;;;;;7359240;19;20015;-78
2023/05/20 10:41:25;;;;;;;7.78;3.40;;;;;;;;;;7370699;19;20168;-77
2023/05/20 10:44:03;;;;;;;8.98;3.97;;;;;;;;;;7361000;19;20029;-78
2023/05/20 10:46:29;;;;;;;9.88;3.58;;;;;;;;;;7366494;19;20006;-78
2023/05/20 10:48:55;;;;;;;7.53;3.78;;;;;;;;;;7362388;19;20006;-81
2023/05/20 10:51:20;;;;;;;7.05;3.47;;;;;;;;;;7363041;19;20034;-80
2023/05/20 10:53:45;;;;;;;8.85;3.78;;;;;;;;;;7368227;19;19999;-79
2023/05/20 10:56:23;;;;;;;7.03;3.23;;;;;;;;;;7370883;19;20084;-79
2023/05/20 10:58:49;;;;;;;8.55;3.70;;;;;;;;;;7362354;19;20263;-78
2023/05/20 11:01:15;;;;;;;9.50;3.40;;;;;;;;;;7366891;19;19999;-76
2023/05/20 11:03:40;;;;;;;9.25;4.43;;;;;;;;;;7349135;19;19999;-77
2023/05/20 11:06:11;;;;;;;7.22;3.25;;;;;;;;;;7369357;19;20156;-77
2023/05/20 11:08:37;;;;;;;6.22;3.00;;;;;;;;;;7369234;19;20015;-78
2023/05/20 11:11:02;;;;;;;6.63;3.53;;;;;;;;;;7374746;19;20003;-78
2023/05/20 11:13:27;;;;;;;5.85;3.30;;;;;;;;;;7370703;19;20120;-76
2023/05/20 11:15:52;;;;;;;9.07;3.87;;;;;;;;;;7374157;19;19998;-77
2023/05/20 11:18:17;;;;;;;6.57;3.70;;;;;;;;;;7378040;19;20266;-77
2023/05/20 11:20:45;;;;;;;8.73;3.80;;;;;;;;;;7366342;19;19990;-77
2023/05/20 11:23:12;;;;;;;6.57;3.58;;;;;;;;;;7368839;19;20623;-77
2023/05/20 11:25:37;;;;;;;5.78;3.33;;;;;;;;;;7373631;19;20371;-77
2023/05/20 11:28:02;;;;;;;6.72;3.40;;;;;;;;;;7371774;19;20002;-78
2023/05/20 11:30:29;;;;;;;5.25;2.97;;;;;;;;;;7374384;19;20363;-77
2023/05/20 11:33:00;;;;;;;6.70;3.38;;;;;;;;;;7374864;19;20006;-78
2023/05/20 11:35:28;;;;;;;8.57;3.45;;;;;;;;;;7374593;19;20035;-77
2023/05/20 11:38:12;;;;;;;6.25;3.45;;;;;;;;;;7369531;19;20011;-76
2023/05/20 11:40:41;;;;;;;7.20;2.90;;;;;;;;;;7372944;19;20030;-78
2023/05/20 11:43:09;;;;;;;7.90;3.60;;;;;;;;;;7371998;19;20010;-77
2023/05/20 11:45:41;;;;;;;7.68;3.33;;;;;;;;;;7374899;19;20002;-77
2023/05/20 11:48:07;;;;;;;7.82;3.70;;;;;;;;;;7377495;19;20011;-77
2023/05/20 11:50:35;;;;;;;8.18;3.33;;;;;;;;;;7375581;19;20051;-77
2023/05/20 11:53:01;;;;;;;7.22;3.70;;;;;;;;;;7368566;19;20006;-77
2023/05/20 11:55:27;;;;;;;6.13;3.33;;;;;;;;;;7377063;19;20515;-77
2023/05/20 11:57:53;;;;;;;7.65;3.55;;;;;;;;;;7369930;19;20084;-78
2023/05/20 12:00:18;;;;;;;5.90;3.35;;;;;;;;;;7371447;19;20009;-78
2023/05/20 12:02:43;;;;;;;8.50;3.50;;;;;;;;;;7368923;19;19994;-77
2023/05/20 12:05:09;;;;;;;5.90;3.08;;;;;;;;;;7371255;19;20348;-77
2023/05/20 12:07:35;;;;;;;6.73;3.73;;;;;;;;;;7375016;19;20417;-78
2023/05/20 12:10:00;;;;;;;7.72;3.58;;;;;;;;;;7373311;19;20254;-78
2023/05/20 12:12:25;;;;;;;7.00;3.55;;;;;;;;;;7370622;19;19998;-78
2023/05/20 12:14:51;;;;;;;8.13;3.28;;;;;;;;;;7367337;19;20044;-77
2023/05/20 12:17:16;;;;;;;6.67;3.00;;;;;;;;;;7373195;19;19999;-78
2023/05/20 12:19:41;;;;;;;7.70;3.47;;;;;;;;;;7366098;19;20335;-78
2023/05/20 12:22:06;;;;;;;6.73;3.30;;;;;;;;;;7372632;19;20473;-78
2023/05/20 12:24:31;;;;;;;7.43;3.33;;;;;;;;;;7372609;19;20003;-77
2023/05/20 12:26:56;;;;;;;10.50;3.47;;;;;;;;;;7370907;19;20003;-78
2023/05/20 12:29:22;;;;;;;10.10;4.00;;;;;;;;;;7368214;19;20102;-77
2023/05/20 12:31:47;;;;;;;6.35;3.00;;;;;;;;;;7369646;19;20027;-77
2023/05/20 12:34:12;;;;;;;8.73;3.37;;;;;;;;;;7374287;19;20015;-78
2023/05/20 12:36:38;;;;;;;5.90;3.23;;;;;;;;;;7352603;19;20803;-77
2023/05/20 12:39:03;;;;;;;5.67;2.87;;;;;;;;;;7351101;19;20564;-77
2023/05/20 12:41:28;;;;;;;6.57;3.27;;;;;;;;;;7360966;19;20003;-78
2023/05/20 12:43:53;;;;;;;6.83;3.30;;;;;;;;;;7359977;19;20587;-77
2023/05/20 12:46:19;;;;;;;8.57;3.70;;;;;;;;;;7363161;19;20102;-77
2023/05/20 12:48:44;;;;;;;6.68;3.30;;;;;;;;;;7362472;19;20364;-76
2023/05/20 12:53:44;;;;;;;9.57;3.33;;;;;;;;;;7285222;19;20006;-75
2023/05/20 12:56:09;;;;;;;6.75;3.28;;;;;;;;;;7314961;19;20022;-77
2023/05/20 12:58:34;;;;;;;5.90;3.22;;;;;;;;;;7336227;19;20032;-77
2023/05/20 13:01:00;;;;;;;5.88;3.30;;;;;;;;;;7344912;19;20042;-75
2023/05/20 13:03:25;;;;;;;6.97;3.30;;;;;;;;;;7355580;19;20114;-76
2023/05/20 13:05:50;;;;;;;6.22;3.20;;;;;;;;;;7346274;19;19998;-79
2023/05/20 13:08:15;;;;;;;8.03;3.40;;;;;;;;;;7357551;19;19999;-77
2023/05/20 13:10:40;;;;;;;7.17;3.27;;;;;;;;;;7352188;19;19999;-76
2023/05/20 13:13:06;;;;;;;8.57;3.27;;;;;;;;;;7363212;19;21000;-76
2023/05/20 13:15:31;;;;;;;6.38;3.05;;;;;;;;;;7366410;19;20272;-75
2023/05/20 13:17:57;;;;;;;6.32;3.00;;;;;;;;;;7360982;19;19994;-77
2023/05/20 13:20:23;;;;;;;9.35;3.60;;;;;;;;;;7356277;19;20126;-78
2023/05/20 13:22:49;;;;;;;6.43;3.03;;;;;;;;;;7359174;19;20039;-76
2023/05/20 13:25:14;;;;;;;10.00;3.60;;;;;;;;;;7361762;19;20010;-76
2023/05/20 13:27:39;;;;;;;6.43;3.40;;;;;;;;;;7354642;19;20002;-76
2023/05/20 13:30:05;;;;;;;7.35;3.83;;;;;;;;;;7355114;19;20251;-77
2023/05/20 13:32:30;;;;;;;5.65;3.10;;;;;;;;;;7360767;19;19999;-77
2023/05/20 13:34:56;;;;;;;5.77;3.10;;;;;;;;;;7352288;19;19999;-75
2023/05/20 13:37:21;;;;;;;6.40;3.30;;;;;;;;;;7348692;19;20036;-75
2023/05/20 13:39:46;;;;;;;6.23;3.30;;;;;;;;;;7357704;19;20002;-77
2023/05/20 13:42:12;;;;;;;5.95;3.65;;;;;;;;;;7353759;19;20431;-77
2023/05/20 13:44:37;;;;;;;12.67;3.83;;;;;;;;;;7349872;19;20010;-77
2023/05/20 22:02:38;;;;;;;17.20;10.63;;;;;;;;;;7223819;18;50746;-77
2023/05/20 22:05:04;;;;;;;14.52;9.40;;;;;;;;;;7355266;19;20090;-76
2023/05/20 22:07:29;;;;;;;15.57;9.80;;;;;;;;;;7363054;19;20051;-76
2023/05/20 22:09:54;;;;;;;14.80;9.63;;;;;;;;;;7364363;19;19999;-76
2023/05/20 22:12:20;;;;;;;14.45;9.82;;;;;;;;;;7353196;19;20110;-76
2023/05/20 22:14:45;;;;;;;15.68;9.50;;;;;;;;;;7362000;19;20002;-76
2023/05/20 22:17:10;;;;;;;11.90;9.63;;;;;;;;;;7361646;19;20117;-76
2023/05/20 22:19:35;;;;;;;14.00;10.20;;;;;;;;;;7362697;19;20227;-76
2023/05/20 22:22:01;;;;;;;14.03;10.47;;;;;;;;;;7364604;19;20003;-76
2023/05/20 22:24:26;;;;;;;13.25;9.93;;;;;;;;;;7363777;19;20762;-76
2023/05/20 22:26:51;;;;;;;19.75;10.75;;;;;;;;;;7368787;19;20086;-76
2023/05/20 22:29:16;;;;;;;14.03;10.90;;;;;;;;;;7367461;19;20154;-76
2023/05/20 22:31:42;;;;;;;15.90;10.30;;;;;;;;;;7368054;19;20252;-76
2023/05/20 22:34:07;;;;;;;14.25;10.73;;;;;;;;;;7365052;19;20015;-76
2023/05/20 22:36:32;;;;;;;13.32;10.10;;;;;;;;;;7362924;19;19994;-77
2023/05/20 22:38:58;;;;;;;15.45;10.50;;;;;;;;;;7368488;19;20023;-76
2023/05/20 22:41:23;;;;;;;15.85;10.93;;;;;;;;;;7367242;19;20415;-76
2023/05/20 22:43:48;;;;;;;22.05;12.55;;;;;;;;;;7359635;19;19998;-76
2023/05/20 22:46:14;;;;;;;19.95;12.18;;;;;;;;;;7368610;19;20017;-76
2023/05/20 22:48:40;;;;;;;17.30;11.80;;;;;;;;;;7365136;19;20002;-76
2023/05/20 22:51:07;;;;;;;14.98;10.90;;;;;;;;;;7365537;19;20038;-76